Dynawave — 3FEH6 — position and weather

sailwx.info

Track history (hours):
 
Tides and Currents Weather Stations Pressure Air Temp Water Temp Dewpoint Dewpoint Depression Visibility Wind Speed Wind Dir Waves Ship Positions

Dynawave

Last reported at 2015-Jan-17 23:05 UTC. Time now 2015-Feb-01 22:47 UTC.
Position N 01°15' E 104°03'.
Warning: this ship's position is 14 days out of date.

Length 209 m; draft 8.5 m.

Type: Cargo ship. MMSI: 356345000.

Date/timePositionNaut miles runAvg speedWind from/ knotsBaromVisibWave heightAir tempDewpointWater temp
2015-Jan-17 23:05N 01°15' E 104°03'5 9.2
2015-Jan-17 22:33N 01°15' E 103°58'1 1.4
2015-Jan-17 21:29N 01°16' E 103°57'0 0.0
2015-Jan-17 20:23N 01°16' E 103°57'0 0.0
2015-Jan-17 19:29N 01°16' E 103°57'0 0.0
2015-Jan-17 18:23N 01°16' E 103°57'0 0.0
2015-Jan-17 17:23N 01°16' E 103°57'0 0.0
2015-Jan-17 15:17N 01°16' E 103°57'0 0.0
2015-Jan-17 14:23N 01°16' E 103°57'0 0.0
2015-Jan-17 13:17N 01°16' E 103°57'0 0.0
2015-Jan-17 12:29N 01°16' E 103°57'0 0.0
2015-Jan-17 11:29N 01°16' E 103°57'0 0.0
2015-Jan-17 10:23N 01°16' E 103°57'0 0.1
2015-Jan-17 09:23N 01°16' E 103°57'0 0.1
2015-Jan-17 08:11N 01°16' E 103°57'0 0.1
2015-Jan-17 07:26N 01°16' E 103°57'0 0.1
2015-Jan-17 06:05N 01°16' E 103°57'0 0.3
2015-Jan-17 05:33N 01°16' E 103°57'2 2.1
2015-Jan-17 04:32N 01°14' E 103°58'5 5.1
2015-Jan-17 03:32N 01°12' E 103°53'6 5.5
2015-Jan-17 02:31N 01°09' E 103°48'80 9.0
2015-Jan-16 17:33N 01°44' E 102°36'  
Track history (hours):
 
Tides and Currents Weather Stations Pressure Air Temp Water Temp Dewpoint Dewpoint Depression Visibility Wind Speed Wind Dir Waves Ship Positions

Dynawave

Last reported at 2015-Jan-17 23:05 UTC. Time now 2015-Feb-01 22:47 UTC.
Position N 01°15' E 104°03'.
Warning: this ship's position is 14 days out of date.

Length 209 m; draft 8.5 m.

Type: Cargo ship. MMSI: 356345000.

Date/timePositionNaut miles runAvg speedWind from/ knotsBaromVisibWave heightAir tempDewpointWater temp
2015-Jan-17 23:05N 01°15' E 104°03'5 9.2
2015-Jan-17 22:33N 01°15' E 103°58'1 1.4
2015-Jan-17 21:29N 01°16' E 103°57'0 0.0
2015-Jan-17 20:23N 01°16' E 103°57'0 0.0
2015-Jan-17 19:29N 01°16' E 103°57'0 0.0
2015-Jan-17 18:23N 01°16' E 103°57'0 0.0
2015-Jan-17 17:23N 01°16' E 103°57'0 0.0
2015-Jan-17 15:17N 01°16' E 103°57'0 0.0
2015-Jan-17 14:23N 01°16' E 103°57'0 0.0
2015-Jan-17 13:17N 01°16' E 103°57'0 0.0
2015-Jan-17 12:29N 01°16' E 103°57'0 0.0
2015-Jan-17 11:29N 01°16' E 103°57'0 0.0
2015-Jan-17 10:23N 01°16' E 103°57'0 0.1
2015-Jan-17 09:23N 01°16' E 103°57'0 0.1
2015-Jan-17 08:11N 01°16' E 103°57'0 0.1
2015-Jan-17 07:26N 01°16' E 103°57'0 0.1
2015-Jan-17 06:05N 01°16' E 103°57'0 0.3
2015-Jan-17 05:33N 01°16' E 103°57'2 2.1
2015-Jan-17 04:32N 01°14' E 103°58'5 5.1
2015-Jan-17 03:32N 01°12' E 103°53'6 5.5
2015-Jan-17 02:31N 01°09' E 103°48'80 9.0
2015-Jan-16 17:33N 01°44' E 102°36'  

Dump ship's entire track history